Time;durP1;ratioP1;P1;durP2;ratioP2;P2;SDS_P1;SDS_P2;PMS_P1;PMS_P2;Temp;Humidity;BMP_temperature;BMP_pressure;BME280_temperature;BME280_humidity;BME280_pressure;Samples;Min_cycle;Max_cycle;Signal;HPM_P1;HPM_P2
2022/12/26 00:04:50;;;;;;;29.75;16.08;;;10.50;79.00;;;;;;21265478;27;20537;-59
2022/12/26 00:14:52;;;;;;;23.30;15.60;;;10.40;78.80;;;;;;21262702;27;20424;-56
2022/12/26 00:24:54;;;;;;;25.83;15.50;;;10.20;78.60;;;;;;21261291;27;20051;-58
2022/12/26 00:34:55;;;;;;;19.92;14.05;;;10.10;78.60;;;;;;21260446;27;20376;-56
2022/12/26 00:44:57;;;;;;;24.75;14.73;;;9.90;78.50;;;;;;21258472;27;20059;-57
2022/12/26 00:54:59;;;;;;;24.25;14.07;;;9.80;78.40;;;;;;21257594;27;20047;-57
2022/12/26 01:05:00;;;;;;;24.10;15.10;;;9.70;78.70;;;;;;21256261;27;20055;-57
2022/12/26 01:15:03;;;;;;;23.65;15.23;;;9.60;79.00;;;;;;21256598;27;20122;-55
2022/12/26 01:25:06;;;;;;;27.38;16.20;;;9.70;79.30;;;;;;21254290;27;20130;-59
2022/12/26 01:35:08;;;;;;;28.52;16.35;;;9.70;79.20;;;;;;21253982;27;20156;-64
2022/12/26 01:45:19;;;;;;;28.02;17.27;;;9.70;79.30;;;;;;21253410;27;20125;-57
2022/12/26 01:55:22;;;;;;;26.90;16.13;;;9.70;79.40;;;;;;21252451;27;20117;-64
2022/12/26 02:05:35;;;;;;;25.70;15.02;;;9.60;79.20;;;;;;21251372;27;20147;-57
2022/12/26 02:15:37;;;;;;;25.48;17.05;;;9.50;79.20;;;;;;21251822;27;20043;-58
2022/12/26 02:26:04;;;;;;;22.55;15.27;;;9.50;79.10;;;;;;21250965;27;20376;-58
2022/12/26 02:36:32;;;;;;;20.23;15.30;;;9.50;79.00;;;;;;21231571;27;20475;-59
2022/12/26 02:47:03;;;;;;;24.20;14.02;;;9.50;79.00;;;;;;21248183;27;20047;-60
2022/12/26 03:18:02;;;;;;;21.27;12.35;;;9.20;77.80;;;;;;21247517;28;20053;-57
2022/12/26 03:28:04;;;;;;;17.63;12.32;;;9.00;77.80;;;;;;21246915;28;20051;-60
2022/12/26 03:38:13;;;;;;;20.45;13.00;;;8.90;77.90;;;;;;21247268;28;20433;-64
2022/12/26 04:20:35;;;;;;;20.50;12.68;;;8.50;79.00;;;;;;21259600;27;20093;-56
2022/12/26 04:52:06;;;;;;;15.45;10.82;;;8.50;78.80;;;;;;21257240;27;20047;-60
2022/12/26 05:12:34;;;;;;;17.83;11.68;;;8.30;78.70;;;;;;21256340;27;20404;-60
2022/12/26 05:43:28;;;;;;;17.67;11.10;;;8.20;78.30;;;;;;21253681;27;20047;-57
2022/12/26 05:53:32;;;;;;;17.90;10.32;;;8.00;78.40;;;;;;21218239;27;20132;-56
2022/12/26 06:03:35;;;;;;;17.55;10.20;;;7.90;78.80;;;;;;21251840;27;20043;-57
2022/12/26 06:13:38;;;;;;;17.65;10.80;;;8.00;78.90;;;;;;21250308;27;20055;-60
2022/12/26 06:23:41;;;;;;;17.23;10.93;;;7.90;78.90;;;;;;21233589;27;20499;-63
2022/12/26 06:33:43;;;;;;;15.23;10.40;;;8.00;78.80;;;;;;21250717;27;20043;-57
2022/12/26 06:43:46;;;;;;;19.55;10.50;;;7.80;78.60;;;;;;21249251;27;20122;-56
2022/12/26 06:53:49;;;;;;;16.75;11.32;;;7.80;78.80;;;;;;21251135;27;20051;-63
2022/12/26 07:03:53;;;;;;;18.15;10.50;;;7.70;78.90;;;;;;21231262;28;20058;-58
2022/12/26 07:13:54;;;;;;;18.65;10.77;;;7.70;79.10;;;;;;21248210;28;20495;-57
2022/12/26 07:23:56;;;;;;;16.80;10.65;;;7.70;79.20;;;;;;21262769;27;20054;-57
2022/12/26 07:33:58;;;;;;;17.13;11.23;;;7.80;79.10;;;;;;21263586;27;20058;-59
2022/12/26 07:44:00;;;;;;;20.58;11.27;;;7.70;78.60;;;;;;21263482;27;20051;-58
2022/12/26 07:54:02;;;;;;;13.95;9.88;;;7.70;78.20;;;;;;21262663;27;20047;-67
2022/12/26 08:04:03;;;;;;;14.90;9.52;;;7.60;78.10;;;;;;21261726;27;20043;-66
2022/12/26 08:14:05;;;;;;;16.95;10.15;;;7.60;78.30;;;;;;21261959;27;20086;-66
2022/12/26 08:24:07;;;;;;;20.88;11.65;;;7.60;78.30;;;;;;21241632;27;20130;-56
2022/12/26 08:34:09;;;;;;;15.93;10.95;;;7.70;78.40;;;;;;21258581;27;20052;-57
2022/12/26 08:44:13;;;;;;;17.10;10.43;;;7.70;78.50;;;;;;21258337;27;20078;-63
2022/12/26 08:54:15;;;;;;;16.75;10.55;;;7.80;78.60;;;;;;21256956;27;20129;-57
2022/12/26 09:04:16;;;;;;;14.85;9.93;;;8.00;78.60;;;;;;21237377;27;20099;-57
2022/12/26 09:14:18;;;;;;;15.68;10.20;;;8.20;77.90;;;;;;21255878;27;20422;-57
2022/12/26 09:24:20;;;;;;;19.70;11.55;;;8.30;77.50;;;;;;21255173;27;20455;-58
2022/12/26 09:34:21;;;;;;;16.40;11.15;;;8.50;77.40;;;;;;21254202;27;20047;-58
2022/12/26 09:44:26;;;;;;;16.83;11.93;;;8.80;77.40;;;;;;21252425;27;20043;-61
2022/12/26 09:54:38;;;;;;;20.23;13.43;;;9.20;77.30;;;;;;21252019;27;20164;-59
2022/12/26 10:04:39;;;;;;;17.70;12.02;;;9.50;76.80;;;;;;21251625;27;20141;-63
2022/12/26 10:15:06;;;;;;;30.95;17.42;;;10.00;76.40;;;;;;21250650;27;20134;-56
2022/12/26 10:25:47;;;;;;;18.77;10.10;;;10.40;75.40;;;;;;21249346;27;20047;-58
2022/12/26 10:35:49;;;;;;;17.23;10.10;;;10.80;74.00;;;;;;21220266;27;20055;-60
2022/12/26 10:45:53;;;;;;;16.48;10.50;;;11.20;73.40;;;;;;21248391;27;20552;-58
2022/12/26 10:55:58;;;;;;;16.45;10.23;;;11.50;72.70;;;;;;21248212;27;20043;-58
2022/12/26 11:06:05;;;;;;;15.63;8.90;;;11.80;71.90;;;;;;21230380;28;20051;-57
2022/12/26 11:16:08;;;;;;;14.88;9.73;;;12.00;71.20;;;;;;21247340;28;20563;-56
2022/12/26 11:26:24;;;;;;;13.05;6.97;;;12.20;70.70;;;;;;21247728;28;20464;-62
2022/12/26 11:36:28;;;;;;;11.65;6.53;;;12.50;69.70;;;;;;21247198;28;20053;-57
2022/12/26 11:46:43;;;;;;;9.47;6.87;;;12.70;68.50;;;;;;21246152;28;20054;-57
2022/12/26 11:56:45;;;;;;;9.83;6.80;;;12.80;68.00;;;;;;21246563;28;20130;-62
2022/12/26 12:06:48;;;;;;;9.18;4.43;;;13.10;67.30;;;;;;21252958;27;20519;-56
2022/12/26 12:17:11;;;;;;;9.35;4.43;;;13.20;66.60;;;;;;21260430;27;20380;-58
2022/12/26 12:27:44;;;;;;;9.60;4.65;;;13.50;64.90;;;;;;21261128;27;20083;-57
2022/12/26 12:38:05;;;;;;;8.77;5.30;;;13.60;63.80;;;;;;21262146;27;20101;-65
2022/12/26 12:48:20;;;;;;;12.45;6.80;;;13.70;63.50;;;;;;21256733;27;20134;-63
2022/12/26 12:58:37;;;;;;;13.50;5.00;;;13.80;63.90;;;;;;21256463;27;20399;-59
2022/12/26 13:08:42;;;;;;;11.27;4.35;;;14.00;63.40;;;;;;21255278;27;20097;-62
2022/12/26 13:18:57;;;;;;;8.70;2.90;;;14.10;61.80;;;;;;21253739;27;20126;-65
2022/12/26 13:29:37;;;;;;;9.27;3.13;;;14.20;61.30;;;;;;21254149;27;20055;-57
2022/12/26 13:39:39;;;;;;;6.15;3.53;;;14.20;60.20;;;;;;20825304;28;20730;-57
2022/12/26 13:49:41;;;;;;;9.23;3.60;;;14.40;59.50;;;;;;20824033;28;20157;-57
2022/12/26 13:59:48;;;;;;;10.82;3.28;;;14.30;60.40;;;;;;20822960;28;20085;-59
2022/12/26 14:10:04;;;;;;;7.25;3.50;;;14.40;58.70;;;;;;21071424;27;20078;-65
2022/12/26 14:20:23;;;;;;;11.70;3.95;;;14.40;59.60;;;;;;21248857;27;20047;-62
2022/12/26 14:30:36;;;;;;;10.75;4.55;;;14.60;59.60;;;;;;21249011;27;20126;-57
2022/12/26 14:40:55;;;;;;;11.95;5.28;;;14.60;59.70;;;;;;21247815;27;20039;-59
2022/12/26 14:51:02;;;;;;;7.53;3.67;;;14.70;58.50;;;;;;21247889;27;20043;-57
2022/12/26 15:01:11;;;;;;;11.70;6.53;;;14.70;58.10;;;;;;21247886;27;20059;-57
2022/12/26 15:11:39;;;;;;;12.82;4.90;;;14.70;58.70;;;;;;21247029;28;20051;-57
2022/12/26 15:21:54;;;;;;;9.52;5.63;;;14.60;59.00;;;;;;21246645;28;20051;-56
2022/12/26 15:32:18;;;;;;;7.75;4.30;;;14.50;59.60;;;;;;21246108;28;20471;-55
2022/12/26 15:42:48;;;;;;;18.00;8.93;;;14.60;58.60;;;;;;21256061;27;20047;-57
2022/12/26 15:53:28;;;;;;;9.98;5.00;;;14.50;58.50;;;;;;21261673;27;20047;-57
2022/12/26 16:03:49;;;;;;;8.80;3.83;;;14.50;59.50;;;;;;21260386;27;20090;-61
2022/12/26 16:14:02;;;;;;;9.00;4.38;;;14.40;60.00;;;;;;21259788;27;20047;-57
2022/12/26 16:24:08;;;;;;;10.80;4.50;;;14.30;60.30;;;;;;21258750;27;20043;-62
2022/12/26 16:34:19;;;;;;;6.53;3.60;;;14.20;61.10;;;;;;21258767;27;20070;-56
2022/12/26 16:44:36;;;;;;;6.75;3.95;;;14.20;61.30;;;;;;21258297;27;20050;-57
2022/12/26 16:54:41;;;;;;;10.23;4.68;;;14.20;61.30;;;;;;21256859;27;20043;-66
2022/12/26 17:05:08;;;;;;;14.90;6.30;;;14.00;61.60;;;;;;21255341;27;20043;-55
2022/12/26 17:15:22;;;;;;;11.63;5.63;;;14.00;62.30;;;;;;21236904;27;20055;-58
2022/12/26 17:25:29;;;;;;;;;;;13.80;62.90;;;;;;21255153;27;20047;-57
2022/12/26 17:35:33;;;;;;;13.90;6.05;;;13.70;63.30;;;;;;21253309;27;19931;-59
2022/12/26 17:45:35;;;;;;;17.47;6.13;;;13.60;64.40;;;;;;21233427;27;20051;-59
2022/12/26 17:55:39;;;;;;;18.27;8.70;;;13.50;64.60;;;;;;21250829;27;20051;-57
2022/12/26 18:05:42;;;;;;;16.30;8.30;;;13.40;65.20;;;;;;21249137;27;20058;-57
2022/12/26 18:15:44;;;;;;;16.02;9.23;;;13.30;65.60;;;;;;21249703;27;20050;-57
2022/12/26 18:25:45;;;;;;;17.77;9.35;;;13.30;66.20;;;;;;21249527;27;20047;-57
2022/12/26 18:35:47;;;;;;;12.27;8.05;;;13.20;66.60;;;;;;21248630;27;20127;-58
2022/12/26 18:45:49;;;;;;;22.20;13.15;;;13.10;66.90;;;;;;21248060;27;20078;-56
2022/12/26 18:55:50;;;;;;;26.80;14.23;;;13.00;67.80;;;;;;21248007;27;20046;-55
2022/12/26 19:05:52;;;;;;;23.65;11.05;;;13.00;68.40;;;;;;21247167;27;20055;-57
2022/12/26 19:15:53;;;;;;;24.23;12.43;;;12.90;68.70;;;;;;21256076;27;20120;-55
2022/12/26 19:25:54;;;;;;;26.17;16.42;;;12.90;69.20;;;;;;21264206;27;20043;-56
2022/12/26 19:35:56;;;;;;;25.08;15.73;;;12.70;69.90;;;;;;21263580;27;20054;-59
2022/12/26 19:46:08;;;;;;;26.15;14.10;;;12.40;70.50;;;;;;21261860;27;20051;-59
2022/12/26 19:56:15;;;;;;;24.23;13.85;;;12.50;70.90;;;;;;21260539;27;20111;-58
2022/12/26 20:06:19;;;;;;;23.02;11.50;;;12.30;71.30;;;;;;21243996;27;20100;-56
2022/12/26 20:16:23;;;;;;;56.87;39.83;;;12.00;72.10;;;;;;21243321;27;20134;-59
2022/12/26 20:26:26;;;;;;;18.50;10.47;;;11.80;72.50;;;;;;21239377;27;20072;-57
2022/12/26 20:36:31;;;;;;;23.00;12.75;;;11.70;72.60;;;;;;21257029;27;20169;-59
2022/12/26 20:46:33;;;;;;;26.80;15.60;;;11.60;72.80;;;;;;21256705;27;20092;-57
2022/12/26 20:56:37;;;;;;;25.10;15.70;;;11.60;72.80;;;;;;21256771;27;20057;-56
2022/12/26 21:06:39;;;;;;;26.50;12.02;;;11.50;72.80;;;;;;21255737;27;20059;-62
2022/12/26 21:16:45;;;;;;;12.77;7.57;;;11.30;73.50;;;;;;21255101;27;20112;-56
2022/12/26 21:26:49;;;;;;;14.10;8.30;;;11.20;73.70;;;;;;21255007;27;20103;-56
2022/12/26 21:47:11;;;;;;;18.60;9.50;;;10.80;73.90;;;;;;21252692;27;20054;-57
2022/12/26 21:57:13;;;;;;;12.50;7.05;;;10.80;74.00;;;;;;21252096;27;20119;-56
2022/12/26 22:07:15;;;;;;;15.60;8.68;;;10.70;74.40;;;;;;21251123;27;20061;-57
2022/12/26 22:17:19;;;;;;;13.43;6.93;;;10.70;74.60;;;;;;21251160;27;20043;-59
2022/12/26 22:27:26;;;;;;;18.45;8.25;;;10.50;74.70;;;;;;21232879;27;20130;-59
2022/12/26 22:37:32;;;;;;;15.02;7.45;;;10.20;75.30;;;;;;21248883;27;20097;-58
2022/12/26 22:47:34;;;;;;;17.63;7.00;;;10.20;75.30;;;;;;21248229;27;20047;-58
2022/12/26 22:57:36;;;;;;;12.38;7.10;;;10.10;75.40;;;;;;21249052;27;20040;-58
2022/12/26 23:07:38;;;;;;;9.55;6.40;;;9.90;75.70;;;;;;21247303;27;20092;-56
2022/12/26 23:38:30;;;;;;;17.08;9.38;;;9.60;76.20;;;;;;21246735;28;20055;-56
2022/12/26 23:48:33;;;;;;;15.93;8.85;;;9.50;76.20;;;;;;21228663;28;20383;-55
2022/12/26 23:58:38;;;;;;;15.13;7.82;;;9.40;76.20;;;;;;21248181;27;20104;-61
